createdAt,value
2022-11-27T00:03:14.380Z,10.33
2022-11-27T00:08:17.620Z,10.10
2022-11-27T00:13:20.699Z,11.85
2022-11-27T00:18:25.002Z,11.75
2022-11-27T00:23:27.998Z,10.10
2022-11-27T00:28:31.582Z,11.88
2022-11-27T00:33:37.500Z,11.30
2022-11-27T00:38:41.060Z,12.23
2022-11-27T00:43:45.031Z,11.50
2022-11-27T00:48:49.782Z,12.02
2022-11-27T00:53:53.152Z,12.57
2022-11-27T00:58:56.569Z,13.00
2022-11-27T01:04:02.080Z,11.45
2022-11-27T01:09:05.507Z,9.38
2022-11-27T01:14:12.055Z,9.97
2022-11-27T01:19:18.411Z,11.10
2022-11-27T01:24:21.360Z,11.05
2022-11-27T01:29:24.240Z,10.97
2022-11-27T01:34:28.572Z,11.85
2022-11-27T01:39:31.459Z,10.27
2022-11-27T01:44:56.164Z,10.83
2022-11-27T01:50:07.059Z,11.70
2022-11-27T01:55:13.671Z,12.50
2022-11-27T02:00:19.194Z,13.85
2022-11-27T02:05:26.390Z,12.60
2022-11-27T02:10:44.260Z,12.80
2022-11-27T02:15:53.492Z,12.82
2022-11-27T02:21:06.106Z,13.20
2022-11-27T02:26:29.408Z,11.93
2022-11-27T02:31:41.554Z,12.65
2022-11-27T02:36:50.860Z,11.53
2022-11-27T02:41:59.591Z,12.50
2022-11-27T02:47:06.667Z,11.88
2022-11-27T02:52:13.042Z,11.65
2022-11-27T02:57:17.942Z,10.87
2022-11-27T03:02:28.033Z,12.63
2022-11-27T03:07:37.123Z,13.30
2022-11-27T03:12:40.397Z,12.70
2022-11-27T03:17:56.184Z,12.77
2022-11-27T03:22:59.374Z,13.32
2022-11-27T03:28:04.658Z,13.33
2022-11-27T03:33:09.295Z,13.70
2022-11-27T03:38:12.314Z,13.65
2022-11-27T03:43:20.959Z,14.30
2022-11-27T03:48:35.969Z,13.90
2022-11-27T03:53:51.419Z,13.77
2022-11-27T03:59:00.493Z,12.35
2022-11-27T04:04:04.963Z,12.50
2022-11-27T04:09:08.066Z,11.38
2022-11-27T04:14:11.322Z,13.15
2022-11-27T04:19:15.697Z,13.90
2022-11-27T04:24:18.662Z,12.50
2022-11-27T04:29:21.656Z,13.40
2022-11-27T04:34:26.236Z,13.02
2022-11-27T04:39:29.173Z,12.83
2022-11-27T04:44:32.146Z,12.15
2022-11-27T04:49:36.499Z,12.35
2022-11-27T04:54:39.633Z,13.30
2022-11-27T04:59:42.884Z,12.18
2022-11-27T05:04:47.209Z,12.30
2022-11-27T05:09:50.154Z,12.80
2022-11-27T05:14:53.021Z,12.10
2022-11-27T05:19:57.286Z,12.00
2022-11-27T05:25:00.187Z,12.65
2022-11-27T05:30:03.055Z,12.47
2022-11-27T05:35:08.265Z,12.27
2022-11-27T05:40:11.851Z,12.27
2022-11-27T05:45:14.753Z,12.10
2022-11-27T05:50:20.309Z,12.65
2022-11-27T05:55:23.224Z,11.70
2022-11-27T06:00:27.188Z,12.90
2022-11-27T06:05:31.473Z,11.63
2022-11-27T06:10:34.697Z,11.07
2022-11-27T06:15:38.093Z,11.50
2022-11-27T06:20:45.345Z,11.23
2022-11-27T06:25:49.902Z,11.57
2022-11-27T06:30:52.844Z,11.35
2022-11-27T06:35:57.793Z,11.13
2022-11-27T06:41:04.502Z,11.05
2022-11-27T06:46:09.391Z,10.50
2022-11-27T06:51:15.768Z,10.47
2022-11-27T06:56:20.904Z,9.77
2022-11-27T07:01:25.216Z,10.20
2022-11-27T07:06:29.921Z,10.02
2022-11-27T07:11:34.120Z,9.90
2022-11-27T07:16:37.859Z,9.98
2022-11-27T07:21:42.144Z,9.77
2022-11-27T07:26:45.028Z,9.03
2022-11-27T07:31:50.493Z,8.68
2022-11-27T07:42:30.896Z,8.87
2022-11-27T07:47:26.654Z,9.50
2022-11-27T07:52:29.418Z,8.65
2022-11-27T07:57:33.560Z,7.93
2022-11-27T08:02:36.301Z,7.93
2022-11-27T08:07:39.145Z,7.50
2022-11-27T08:12:43.342Z,7.18
2022-11-27T08:17:46.062Z,7.37
2022-11-27T08:22:49.098Z,9.20
2022-11-27T08:27:53.241Z,9.45
2022-11-27T08:32:56.022Z,10.10
2022-11-27T08:37:58.768Z,9.10
2022-11-27T08:43:03.041Z,10.95
2022-11-27T08:48:06.184Z,10.38
2022-11-27T08:53:08.918Z,11.20
2022-11-27T08:58:13.201Z,10.48
2022-11-27T09:03:16.133Z,11.00
2022-11-27T09:08:21.407Z,10.53
2022-11-27T09:13:25.517Z,9.88
2022-11-27T09:18:28.270Z,10.80
2022-11-27T09:23:31.793Z,10.37
2022-11-27T09:28:36.710Z,10.60
2022-11-27T09:33:40.998Z,11.00
2022-11-27T09:38:44.378Z,9.80
2022-11-27T09:43:53.595Z,9.40
2022-11-27T09:48:58.899Z,10.05
2022-11-27T09:54:06.621Z,9.80
2022-11-27T09:59:17.581Z,9.53
2022-11-27T10:04:22.476Z,9.25
2022-11-27T10:09:36.568Z,9.18
2022-11-27T10:14:53.825Z,8.90
2022-11-27T10:20:17.165Z,9.50
2022-11-27T10:25:22.019Z,45.55
2022-11-27T10:30:29.416Z,12.38
2022-11-27T10:35:33.902Z,50.13
2022-11-27T10:40:41.249Z,91.68
2022-11-27T10:45:49.822Z,34.78
2022-11-27T10:50:52.693Z,139.70
2022-11-27T10:56:06.153Z,77.10
2022-11-27T11:01:11.972Z,23.10
2022-11-27T11:06:22.000Z,15.67
2022-11-27T11:11:27.541Z,35.10
2022-11-27T11:16:35.339Z,16.73
2022-11-27T11:21:41.055Z,45.58
2022-11-27T11:26:47.552Z,8.77
2022-11-27T11:31:51.858Z,8.80
2022-11-27T11:36:59.996Z,16.35
2022-11-27T11:42:11.100Z,10.93
2022-11-27T11:47:19.829Z,48.53
2022-11-27T11:52:45.085Z,52.17
2022-11-27T11:58:13.769Z,65.40
2022-11-27T12:03:36.797Z,69.23
2022-11-27T12:08:52.409Z,51.05
2022-11-27T12:14:11.335Z,52.10
2022-11-27T12:19:35.884Z,210.87
2022-11-27T12:24:48.245Z,85.53
2022-11-27T12:30:15.679Z,109.55
2022-11-27T12:35:31.221Z,63.87
2022-11-27T12:40:49.764Z,43.95
2022-11-27T12:45:56.328Z,30.70
2022-11-27T12:51:05.039Z,74.00
2022-11-27T12:56:17.909Z,41.13
2022-11-27T13:01:27.023Z,49.40
2022-11-27T13:06:35.788Z,159.43
2022-11-27T13:11:40.185Z,45.23
2022-11-27T13:16:46.798Z,25.52
2022-11-27T13:21:53.227Z,19.27
2022-11-27T13:27:02.909Z,33.23
2022-11-27T13:32:07.581Z,18.85
2022-11-27T13:37:28.393Z,9.98
2022-11-27T13:42:33.983Z,14.23
2022-11-27T13:47:44.961Z,30.10
2022-11-27T13:52:59.992Z,14.50
2022-11-27T13:58:04.519Z,18.52
2022-11-27T14:03:10.639Z,24.30
2022-11-27T14:08:22.043Z,18.70
2022-11-27T14:13:36.204Z,14.77
2022-11-27T14:18:39.075Z,23.87
2022-11-27T14:23:52.408Z,16.25
2022-11-27T14:28:56.801Z,19.80
2022-11-27T14:34:20.840Z,15.30
2022-11-27T14:39:30.604Z,11.50
2022-11-27T14:44:34.037Z,6.70
2022-11-27T14:49:37.589Z,5.55
2022-11-27T14:54:44.864Z,5.50
2022-11-27T14:59:47.834Z,8.00
2022-11-27T15:04:50.720Z,10.00
2022-11-27T15:09:57.361Z,8.90
2022-11-27T15:15:01.821Z,6.32
2022-11-27T15:20:15.500Z,5.90
2022-11-27T15:25:36.326Z,6.17
2022-11-27T15:31:04.661Z,5.00
2022-11-27T15:36:43.007Z,5.18
2022-11-27T15:41:58.157Z,4.55
2022-11-27T15:47:03.222Z,6.07
2022-11-27T15:52:06.444Z,4.55
2022-11-27T15:57:10.701Z,4.75
2022-11-27T16:02:18.338Z,5.07
2022-11-27T16:07:29.632Z,5.20
2022-11-27T16:12:34.693Z,4.70
2022-11-27T16:17:37.530Z,4.60
2022-11-27T16:22:40.394Z,4.90
2022-11-27T16:27:44.837Z,5.00
2022-11-27T16:33:07.895Z,4.80
2022-11-27T16:38:10.946Z,5.00
2022-11-27T16:43:30.777Z,4.65
2022-11-27T16:49:07.821Z,4.68
2022-11-27T16:59:45.797Z,4.70
2022-11-27T17:04:54.321Z,4.18
2022-11-27T17:10:34.181Z,4.90
2022-11-27T17:15:59.406Z,4.53
2022-11-27T17:21:06.457Z,5.00
2022-11-27T17:26:10.227Z,4.78
2022-11-27T17:31:47.446Z,4.67
2022-11-27T17:37:28.955Z,4.60
2022-11-27T17:42:37.534Z,4.88
2022-11-27T17:47:55.071Z,4.47
2022-11-27T17:53:00.802Z,4.63
2022-11-27T17:58:15.272Z,4.57
2022-11-27T18:03:23.631Z,4.60
2022-11-27T18:08:52.942Z,4.20
2022-11-27T18:14:09.640Z,4.68
2022-11-27T18:19:16.932Z,4.70
2022-11-27T18:25:06.682Z,4.80
2022-11-27T18:30:11.242Z,5.20
2022-11-27T18:35:37.243Z,5.20
2022-11-27T18:40:56.545Z,5.50
2022-11-27T18:46:02.889Z,6.22
2022-11-27T18:51:17.852Z,5.60
2022-11-27T18:56:25.706Z,5.43
2022-11-27T19:01:36.785Z,6.10
2022-11-27T19:06:45.338Z,5.82
2022-11-27T19:11:54.375Z,6.07
2022-11-27T19:16:58.792Z,6.40
2022-11-27T19:22:07.222Z,5.72
2022-11-27T19:27:10.400Z,5.72
2022-11-27T19:32:13.943Z,5.70
2022-11-27T19:37:28.875Z,5.80
2022-11-27T19:42:37.768Z,6.38
2022-11-27T19:47:41.072Z,6.03
2022-11-27T19:52:45.237Z,5.70
2022-11-27T19:57:48.040Z,6.68
2022-11-27T20:02:51.064Z,6.40
2022-11-27T20:07:56.046Z,5.27
2022-11-27T20:13:01.541Z,5.65
2022-11-27T20:18:04.834Z,5.28
2022-11-27T20:23:09.946Z,5.60
2022-11-27T20:28:13.615Z,5.60
2022-11-27T20:33:19.487Z,5.50
2022-11-27T20:38:26.619Z,5.90
2022-11-27T20:43:30.069Z,5.90
2022-11-27T20:48:33.822Z,6.18
2022-11-27T20:53:38.985Z,6.28
2022-11-27T20:58:44.224Z,6.03
2022-11-27T21:03:49.340Z,6.00
2022-11-27T21:08:54.587Z,5.97
2022-11-27T21:13:59.979Z,5.80
2022-11-27T21:19:05.102Z,5.78
2022-11-27T21:24:10.379Z,5.90
2022-11-27T21:29:14.417Z,6.30
2022-11-27T21:34:17.677Z,6.00
2022-11-27T21:39:22.440Z,5.63
2022-11-27T21:44:26.589Z,5.53
2022-11-27T21:49:29.858Z,5.60
2022-11-27T21:54:34.622Z,5.97
2022-11-27T21:59:38.018Z,5.97
2022-11-27T22:04:41.376Z,5.60
2022-11-27T22:09:46.618Z,5.50
2022-11-27T22:14:51.518Z,5.65
2022-11-27T22:19:54.692Z,5.73
2022-11-27T22:24:59.253Z,6.00
2022-11-27T22:30:02.161Z,6.15
2022-11-27T22:35:05.831Z,6.03
2022-11-27T22:40:11.775Z,5.60
2022-11-27T22:45:15.309Z,6.03
2022-11-27T22:50:18.424Z,6.57
2022-11-27T22:55:23.170Z,6.50
2022-11-27T23:00:26.526Z,6.90
2022-11-27T23:05:29.819Z,7.25
2022-11-27T23:10:34.826Z,6.70
2022-11-27T23:15:38.087Z,7.00
2022-11-27T23:20:42.811Z,7.25
2022-11-27T23:25:47.307Z,6.93
2022-11-27T23:31:08.482Z,7.23
2022-11-27T23:36:13.704Z,7.78
2022-11-27T23:41:21.337Z,7.30
2022-11-27T23:46:26.823Z,6.77
2022-11-27T23:51:31.841Z,6.95
2022-11-27T23:56:36.463Z,8.25
